Time;durP1;ratioP1;P1;durP2;ratioP2;P2;SDS_P1;SDS_P2;PMS_P1;PMS_P2;Temp;Humidity;BMP_temperature;BMP_pressure;BME280_temperature;BME280_humidity;BME280_pressure;Samples;Min_cycle;Max_cycle;Signal;HPM_P1;HPM_P2
2021/10/13 05:13:57;;;;;;;;;7.00;5.00;;;;;11.24;66.64;102465.19;5055047;27;45826;-80
2021/10/13 05:16:22;;;;;;;;;13.00;6.00;;;;;11.23;66.92;102459.94;5065978;28;45332;-80
2021/10/13 05:18:48;;;;;;;;;6.50;5.50;;;;;11.16;67.28;102469.63;5071609;28;45983;-80
2021/10/13 05:21:13;;;;;;;;;5.50;5.50;;;;;11.16;67.09;102474.88;5057788;28;45487;-79
2021/10/13 05:23:38;;;;;;;;;11.00;5.00;;;;;11.12;67.23;102479.31;5060430;28;45277;-80
2021/10/13 05:26:04;;;;;;;;;5.00;5.00;;;;;11.13;67.29;102482.81;5060314;28;45205;-80
2021/10/13 05:28:29;;;;;;;;;5.50;5.25;;;;;11.12;67.17;102494.22;5058140;28;45502;-80
2021/10/13 05:30:55;;;;;;;;;6.00;6.00;;;;;11.07;67.44;102485.50;5059709;28;45566;-80
2021/10/13 05:33:20;;;;;;;;;6.25;4.00;;;;;11.06;67.40;102489.03;5060190;28;45434;-80
2021/10/13 05:35:45;;;;;;;;;6.00;5.75;;;;;11.03;67.21;102488.16;5060036;28;45409;-80
2021/10/13 05:38:11;;;;;;;;;7.25;5.50;;;;;10.98;67.37;102487.31;5058145;28;45376;-80
2021/10/13 05:40:36;;;;;;;;;4.00;4.00;;;;;10.96;67.40;102489.09;5057952;28;45429;-80
2021/10/13 05:43:01;;;;;;;;;5.00;4.00;;;;;10.95;67.68;102497.84;5074856;28;45460;-80
2021/10/13 05:45:27;;;;;;;;;6.75;6.00;;;;;10.89;67.25;102496.13;5058962;28;45282;-82
2021/10/13 05:47:52;;;;;;;;;7.00;7.00;;;;;10.92;67.38;102508.38;5070223;28;45418;-81
2021/10/13 05:50:18;;;;;;;;;9.50;7.00;;;;;10.89;67.11;102505.78;5059475;28;45502;-81
2021/10/13 05:52:43;;;;;;;;;6.50;6.00;;;;;10.84;67.56;102499.69;5059698;28;45430;-81
2021/10/13 05:55:09;;;;;;;;;9.25;5.75;;;;;10.86;67.51;102504.06;5059151;28;45325;-80
2021/10/13 05:57:35;;;;;;;;;5.75;5.75;;;;;10.84;67.66;102507.56;5057584;28;45365;-81
2021/10/13 06:00:04;;;;;;;;;5.50;5.50;;;;;10.78;67.61;102511.97;5075127;28;48541;-81
2021/10/13 06:02:29;;;;;;;;;8.00;6.75;;;;;10.77;67.82;102507.59;5059475;28;45310;-81
2021/10/13 06:04:55;;;;;;;;;6.25;6.00;;;;;10.74;67.57;102507.59;5059063;28;45434;-81
2021/10/13 06:07:20;;;;;;;;;5.25;5.25;;;;;10.75;67.98;102517.25;5058294;28;45239;-81
2021/10/13 06:09:46;;;;;;;;;6.50;6.00;;;;;10.74;67.82;102520.75;5056018;28;45377;-81
2021/10/13 06:12:11;;;;;;;;;5.00;5.00;;;;;10.67;68.00;102517.28;5058420;28;45427;-81
2021/10/13 06:14:36;;;;;;;;;10.00;5.75;;;;;10.69;67.95;102512.03;5057644;28;45282;-80
2021/10/13 06:17:04;;;;;;;;;7.00;6.50;;;;;10.70;67.93;102516.41;5059444;28;45470;-80
2021/10/13 06:19:30;;;;;;;;;9.00;7.75;;;;;10.66;68.07;102519.94;5058136;28;45466;-80
2021/10/13 06:21:55;;;;;;;;;9.50;8.25;;;;;10.65;68.07;102518.16;5057711;28;45465;-80
2021/10/13 06:24:20;;;;;;;;;9.00;7.75;;;;;10.67;68.30;102525.16;5057272;28;45255;-81
2021/10/13 06:26:46;;;;;;;;;8.50;8.50;;;;;10.63;68.26;102539.22;5055696;28;45269;-80
2021/10/13 06:29:11;;;;;;;;;9.00;8.50;;;;;10.65;68.19;102541.84;5057811;28;45262;-80
2021/10/13 06:31:36;;;;;;;;;11.00;8.50;;;;;10.62;68.41;102536.59;5057990;28;45366;-80
2021/10/13 06:34:02;;;;;;;;;9.00;7.50;;;;;10.61;68.27;102541.00;5058128;28;45211;-81
2021/10/13 06:36:27;;;;;;;;;12.50;9.00;;;;;10.58;68.46;102536.63;5056462;28;45353;-81
2021/10/13 06:38:52;;;;;;;;;10.25;9.00;;;;;10.61;68.69;102550.63;5057661;28;46174;-81
2021/10/13 06:41:18;;;;;;;;;11.50;9.25;;;;;10.59;68.69;102553.28;5057866;28;45417;-81
2021/10/13 06:43:43;;;;;;;;;9.00;8.00;;;;;10.55;69.19;102547.13;5060214;27;45385;-80
2021/10/13 06:46:09;;;;;;;;;13.75;11.50;;;;;10.57;68.83;102555.00;5057409;28;45474;-80
2021/10/13 06:48:35;;;;;;;;;11.50;11.00;;;;;10.62;68.99;102557.66;5058955;28;45627;-80
2021/10/13 06:51:00;;;;;;;;;9.25;9.25;;;;;10.61;69.24;102561.16;5057176;28;45389;-80
2021/10/13 06:53:27;;;;;;;;;10.75;10.75;;;;;10.60;69.20;102548.88;5058973;28;45515;-80
2021/10/13 06:55:52;;;;;;;;;10.25;9.00;;;;;10.58;69.19;102547.13;5061005;28;45291;-80
2021/10/13 06:58:18;;;;;;;;;12.00;11.00;;;;;10.61;69.23;102548.00;5062249;28;45589;-80
2021/10/13 07:00:43;;;;;;;;;12.00;12.00;;;;;10.60;69.37;102551.50;5061729;28;45346;-80
2021/10/13 07:03:09;;;;;;;;;12.00;9.00;;;;;10.64;69.24;102556.72;5060881;28;45394;-80
2021/10/13 07:05:37;;;;;;;;;8.75;8.50;;;;;10.63;69.90;102559.38;5061145;28;45414;-80
2021/10/13 07:08:03;;;;;;;;;14.75;10.50;;;;;10.65;69.63;102565.50;5077916;28;46377;-80
2021/10/13 07:10:29;;;;;;;;;11.50;11.50;;;;;10.65;69.43;102569.00;5062079;28;45165;-80
2021/10/13 07:12:54;;;;;;;;;13.75;11.75;;;;;10.63;69.99;102565.53;5061996;28;45280;-80
2021/10/13 07:15:21;;;;;;;;;12.50;11.75;;;;;10.67;69.89;102567.25;5060023;28;45348;-80
2021/10/13 07:17:47;;;;;;;;;11.00;11.00;;;;;10.66;69.93;102568.16;5061268;28;45724;-80
2021/10/13 07:20:12;;;;;;;;;13.25;10.75;;;;;10.69;70.01;102575.16;5061887;28;45444;-80
2021/10/13 07:22:38;;;;;;;;;11.75;10.50;;;;;10.71;70.07;102573.38;5062232;28;45398;-80
2021/10/13 07:25:05;;;;;;;;;14.75;14.25;;;;;10.71;70.38;102578.66;5060478;28;45533;-80
2021/10/13 07:27:30;;;;;;;;;12.50;10.00;;;;;10.77;70.47;102583.88;5060999;28;45508;-80
2021/10/13 07:30:02;;;;;;;;;15.50;11.00;;;;;10.82;70.34;102585.59;5061620;28;45435;-80
2021/10/13 07:32:31;;;;;;;;;12.00;11.00;;;;;10.89;70.46;102592.59;5045252;28;47077;-80
2021/10/13 07:34:57;;;;;;;;;14.00;14.00;;;;;10.89;70.68;102598.72;5056193;28;46947;-81
2021/10/13 07:37:22;;;;;;;;;13.75;12.75;;;;;10.93;70.22;102594.34;5058066;28;46096;-81
2021/10/13 07:39:49;;;;;;;;;14.50;12.00;;;;;10.97;70.58;102601.31;5060456;28;45318;-81
2021/10/13 07:42:16;;;;;;;;;15.25;12.00;;;;;11.02;70.26;102594.28;5065266;28;45403;-81
2021/10/13 07:44:42;;;;;;;;;15.75;12.25;;;;;11.10;70.39;102609.16;5061050;28;45539;-81
2021/10/13 07:47:08;;;;;;;;;14.50;10.50;;;;;11.14;70.32;102587.19;5059515;28;45389;-81
2021/10/13 07:49:34;;;;;;;;;10.75;10.25;;;;;11.26;70.22;102602.03;5060996;28;45390;-80
2021/10/13 07:51:59;;;;;;;;;14.75;10.00;;;;;11.28;70.09;102602.94;5060387;28;45444;-81
2021/10/13 07:54:25;;;;;;;;;13.25;10.25;;;;;11.36;69.93;102605.50;5058642;28;45393;-81
2021/10/13 07:56:51;;;;;;;;;18.00;12.75;;;;;11.44;69.83;102608.97;5060914;28;46458;-81
2021/10/13 07:59:16;;;;;;;;;14.75;12.75;;;;;11.47;70.03;102594.91;5061025;28;45286;-81
2021/10/13 08:01:42;;;;;;;;;16.00;15.00;;;;;11.54;69.83;102606.25;5060730;28;45659;-81
2021/10/13 08:04:07;;;;;;;;;12.50;11.50;;;;;11.61;69.79;102607.97;5058996;28;45447;-81
2021/10/13 08:06:33;;;;;;;;;12.50;12.25;;;;;11.63;69.71;102608.81;5059763;28;46162;-81
2021/10/13 08:08:58;;;;;;;;;15.00;13.75;;;;;11.73;69.62;102621.94;5060423;28;45291;-81
2021/10/13 08:11:24;;;;;;;;;14.75;13.25;;;;;11.73;69.36;102607.00;5061145;28;45325;-81
2021/10/13 08:13:49;;;;;;;;;11.00;11.00;;;;;11.82;68.81;102616.59;5057530;28;45827;-80
2021/10/13 08:16:14;;;;;;;;;14.00;9.75;;;;;11.81;68.45;102610.47;5058798;28;45453;-80
2021/10/13 08:18:40;;;;;;;;;11.75;10.25;;;;;11.86;67.67;102609.53;5061032;28;45431;-81
2021/10/13 08:21:05;;;;;;;;;13.25;11.25;;;;;11.89;67.60;102615.66;5060229;28;45501;-81
2021/10/13 08:23:31;;;;;;;;;11.75;11.25;;;;;11.93;67.26;102606.84;5059145;28;45428;-80
2021/10/13 08:25:58;;;;;;;;;9.75;7.50;;;;;11.92;66.98;102607.75;5060348;28;46267;-80
2021/10/13 08:28:25;;;;;;;;;12.25;9.50;;;;;11.99;66.12;102610.31;5058914;28;45370;-81
2021/10/13 08:30:51;;;;;;;;;10.50;10.50;;;;;11.97;66.08;102609.47;5059745;28;45463;-81
2021/10/13 08:33:17;;;;;;;;;11.75;8.25;;;;;12.02;65.69;102612.94;5060829;28;45350;-81
2021/10/13 08:35:42;;;;;;;;;10.00;8.50;;;;;12.03;65.55;102605.00;5060029;28;45321;-81
2021/10/13 08:38:08;;;;;;;;;10.25;8.00;;;;;12.04;65.41;102605.88;5059629;28;45694;-82
2021/10/13 08:40:33;;;;;;;;;10.00;9.50;;;;;12.13;65.38;102610.22;5060433;28;45295;-82
2021/10/13 08:43:01;;;;;;;;;9.00;9.00;;;;;12.15;65.61;102605.78;5059289;28;45542;-81
2021/10/13 08:45:29;;;;;;;;;7.75;7.75;;;;;12.24;65.09;102607.47;5060091;28;46142;-82
2021/10/13 08:47:55;;;;;;;;;9.00;7.50;;;;;12.30;64.60;102622.38;5060072;28;45359;-82
2021/10/13 08:50:22;;;;;;;;;9.00;6.50;;;;;12.28;64.55;102619.72;5060294;28;45168;-82
2021/10/13 08:52:48;;;;;;;;;7.50;6.50;;;;;12.33;64.11;102617.94;5058182;28;46299;-82
2021/10/13 08:55:15;;;;;;;;;5.25;5.25;;;;;12.37;63.92;102619.63;5059635;28;46373;-82
2021/10/13 08:57:40;;;;;;;;;8.00;6.00;;;;;12.40;63.01;102613.47;5058257;28;45416;-82
2021/10/13 09:00:06;;;;;;;;;7.75;4.75;;;;;12.46;63.34;102615.16;5060134;28;45389;-82
2021/10/13 09:02:36;;;;;;;;;6.50;5.25;;;;;12.51;63.11;102626.53;5059172;28;45419;-82
2021/10/13 09:05:17;;;;;;;;;6.25;5.75;;;;;12.56;63.72;102623.84;5060095;28;46345;-82
2021/10/13 09:07:50;;;;;;;;;7.00;5.50;;;;;12.56;63.64;102619.47;5059077;28;45799;-82
2021/10/13 09:10:36;;;;;;;;;8.50;6.75;;;;;12.62;63.14;102622.91;5059938;28;45504;-82
2021/10/13 09:13:04;;;;;;;;;6.75;5.25;;;;;12.67;62.78;102621.06;5075203;28;46448;-82
2021/10/13 09:15:32;;;;;;;;;6.75;5.00;;;;;12.68;62.04;102618.44;5058403;27;45370;-82
2021/10/13 09:17:57;;;;;;;;;4.00;4.00;;;;;12.76;60.95;102625.38;5059574;28;45593;-82
2021/10/13 09:20:25;;;;;;;;;5.75;5.75;;;;;12.77;61.48;102628.00;5061614;28;45230;-82
2021/10/13 09:23:00;;;;;;;;;8.00;4.00;;;;;12.79;61.22;102625.38;5059288;28;45495;-83
2021/10/13 09:25:26;;;;;;;;;6.75;5.25;;;;;12.86;61.13;102626.16;5059604;28;45451;-83
2021/10/13 09:27:52;;;;;;;;;2.75;2.75;;;;;12.85;60.24;102624.38;5059122;28;45270;-83
2021/10/13 09:30:35;;;;;;;;;4.75;4.00;;;;;12.87;60.50;102622.59;5058916;28;45365;-82
2021/10/13 09:33:15;;;;;;;;;5.50;4.75;;;;;12.93;59.74;102627.81;5055277;28;45354;-82
2021/10/13 09:35:48;;;;;;;;;5.75;4.00;;;;;12.97;59.59;102634.78;5057293;28;46771;-82
2021/10/13 09:38:21;;;;;;;;;5.00;5.00;;;;;12.98;59.97;102631.28;5074139;28;45357;-83
2021/10/13 09:40:48;;;;;;;;;9.25;5.25;;;;;12.99;59.91;102625.09;5057453;28;45332;-82
2021/10/13 09:43:33;;;;;;;;;6.25;5.50;;;;;13.06;59.60;102628.53;5054663;28;45558;-82
2021/10/13 09:46:13;;;;;;;;;5.00;4.00;;;;;13.14;58.79;102628.41;5051040;28;45530;-83
2021/10/13 09:48:43;;;;;;;;;7.75;4.00;;;;;13.13;59.08;102618.78;5057279;28;45712;-82
2021/10/13 09:51:21;;;;;;;;;4.25;3.50;;;;;13.23;58.95;102633.59;5057183;28;45428;-83
2021/10/13 09:53:48;;;;;;;;;3.75;2.00;;;;;13.24;59.28;102635.31;5057797;28;45562;-83
2021/10/13 09:56:37;;;;;;;;;3.50;2.50;;;;;13.32;58.79;102637.00;5056840;28;46290;-83
2021/10/13 09:59:18;;;;;;;;;8.75;4.25;;;;;13.36;59.70;102641.31;5054657;28;46168;-82
2021/10/13 10:01:49;;;;;;;;;8.00;4.00;;;;;13.41;58.93;102644.78;5056496;28;47097;-82
2021/10/13 10:04:21;;;;;;;;;3.50;3.25;;;;;13.41;58.43;102634.22;5058469;28;45354;-82
2021/10/13 10:06:52;;;;;;;;;4.75;4.75;;;;;13.44;57.53;102630.66;5057514;28;45364;-82
2021/10/13 10:09:20;;;;;;;;;2.00;2.00;;;;;13.46;57.19;102637.66;5056625;28;45637;-82
2021/10/13 10:11:47;;;;;;;;;3.00;2.00;;;;;13.52;57.74;102641.09;5055988;28;45487;-82
2021/10/13 10:14:37;;;;;;;;;3.00;2.75;;;;;13.55;57.39;102635.78;5057062;28;45425;-82
2021/10/13 10:17:05;;;;;;;;;5.00;4.00;;;;;13.52;57.36;102639.34;5058259;28;46392;-82
2021/10/13 10:19:44;;;;;;;;;3.50;2.50;;;;;13.59;56.73;102633.09;5056540;28;45417;-82
2021/10/13 10:22:11;;;;;;;;;3.75;3.75;;;;;13.63;56.56;102646.28;5055839;28;45414;-82
2021/10/13 10:24:46;;;;;;;;;1.75;1.75;;;;;13.61;55.18;102635.72;5055307;28;47003;-82
2021/10/13 10:27:23;;;;;;;;;1.75;1.75;;;;;13.67;55.32;102640.03;5057251;28;45504;-82
2021/10/13 10:29:58;;;;;;;;;4.00;2.00;;;;;13.64;55.37;102629.50;5060095;28;45597;-82
2021/10/13 10:32:23;;;;;;;;;1.75;1.75;;;;;13.68;55.66;102625.94;5061683;28;45145;-82
2021/10/13 10:35:04;;;;;;;;;5.00;4.00;;;;;13.78;55.26;102639.88;5062731;28;45328;-82
2021/10/13 10:37:45;;;;;;;;;3.75;3.75;;;;;13.80;55.83;102633.66;5058967;28;46261;-82
2021/10/13 10:40:20;;;;;;;;;2.25;2.25;;;;;13.83;55.93;102636.25;5061929;28;45763;-82
2021/10/13 10:42:56;;;;;;;;;4.50;2.00;;;;;13.87;55.29;102639.72;5060556;28;45663;-82
2021/10/13 10:45:29;;;;;;;;;1.50;1.50;;;;;13.89;54.99;102631.75;5061602;28;45409;-82
2021/10/13 10:47:56;;;;;;;;;1.50;1.25;;;;;13.90;55.37;102634.38;5062518;28;46637;-82
2021/10/13 10:50:41;;;;;;;;;4.50;3.00;;;;;13.96;55.09;102636.03;5062450;28;45451;-81
2021/10/13 10:53:52;;;;;;;;;7.75;3.50;;;;;14.01;54.86;102622.75;5061271;28;45358;-82
2021/10/13 10:56:30;;;;;;;;;2.00;1.25;;;;;14.05;55.20;102629.75;5059946;28;45455;-82
2021/10/13 10:59:12;;;;;;;;;2.75;2.75;;;;;14.04;54.53;102615.66;5059812;28;45504;-82
2021/10/13 11:01:40;;;;;;;;;4.25;3.50;;;;;14.10;55.86;102614.66;5059575;28;45257;-82
2021/10/13 11:04:10;;;;;;;;;3.00;1.75;;;;;14.21;55.77;102629.47;5061238;28;45475;-83
2021/10/13 11:06:37;;;;;;;;;4.50;2.00;;;;;14.19;55.05;102618.91;5061024;28;46951;-82
2021/10/13 11:09:04;;;;;;;;;4.00;3.00;;;;;14.34;54.48;102628.34;5062173;28;45406;-82
2021/10/13 11:11:36;;;;;;;;;3.00;3.00;;;;;14.39;53.47;102634.44;5061591;28;45215;-82
2021/10/13 11:14:05;;;;;;;;;1.00;1.00;;;;;14.41;53.73;102629.09;5061790;28;45291;-82
2021/10/13 11:16:32;;;;;;;;;2.50;2.50;;;;;14.47;53.39;102630.75;5059727;28;45525;-82
2021/10/13 11:19:16;;;;;;;;;4.75;3.25;;;;;14.48;54.14;102630.72;5061141;28;46283;-82
2021/10/13 11:21:43;;;;;;;;;1.75;1.75;;;;;14.56;54.85;102638.50;5062102;28;45408;-82
2021/10/13 11:24:09;;;;;;;;;1.00;1.00;;;;;14.66;53.91;102640.97;5062118;28;45440;-82
2021/10/13 11:26:35;;;;;;;;;1.50;1.50;;;;;14.69;53.97;102646.22;5060994;28;45467;-82
2021/10/13 11:29:01;;;;;;;;;2.50;2.00;;;;;14.73;53.36;102643.47;5060867;28;46168;-82
2021/10/13 11:31:27;;;;;;;;;3.75;1.25;;;;;14.83;53.35;102643.28;5061878;28;45258;-82
2021/10/13 11:34:06;;;;;;;;;1.75;1.75;;;;;14.90;53.14;102644.06;5061269;28;45471;-81
2021/10/13 11:36:32;;;;;;;;;2.00;2.00;;;;;14.91;52.76;102637.88;5059800;28;45580;-82
2021/10/13 11:38:58;;;;;;;;;1.00;1.00;;;;;14.98;52.78;102636.81;5060675;28;45550;-82
2021/10/13 11:41:23;;;;;;;;;3.00;3.00;;;;;15.09;52.66;102643.69;5060486;28;45455;-82
2021/10/13 11:43:49;;;;;;;;;2.25;1.25;;;;;15.06;52.13;102629.56;5061757;28;45421;-82
2021/10/13 11:46:16;;;;;;;;;1.00;1.00;;;;;15.12;51.91;102638.28;5063245;28;45527;-82
2021/10/13 11:48:41;;;;;;;;;2.25;2.00;;;;;15.17;51.38;102645.25;5060191;28;46418;-82
2021/10/13 11:51:13;;;;;;;;;1.00;1.00;;;;;15.18;51.77;102646.13;5061151;28;45231;-82
2021/10/13 11:53:39;;;;;;;;;1.25;1.25;;;;;15.21;52.73;102630.13;5061628;28;45582;-82
2021/10/13 11:56:12;;;;;;;;;2.00;2.00;;;;;15.31;50.63;102644.03;5061410;28;45429;-82
2021/10/13 11:58:39;;;;;;;;;3.25;1.50;;;;;15.30;50.96;102645.84;5047858;28;45677;-82
2021/10/13 12:01:05;;;;;;;;;1.00;1.00;;;;;15.30;50.27;102648.50;5058943;28;45531;-82
2021/10/13 12:03:33;;;;;;;;;1.25;1.25;;;;;15.30;50.66;102637.91;5061675;28;45297;-82
2021/10/13 12:05:59;;;;;;;;;3.00;1.00;;;;;15.30;50.84;102639.66;5061224;28;45553;-82
2021/10/13 12:08:33;;;;;;;;;1.25;1.25;;;;;15.34;50.59;102645.75;5060149;28;45649;-82
2021/10/13 12:11:04;;;;;;;;;2.00;2.00;;;;;15.30;50.61;102645.84;5054765;28;45289;-82
2021/10/13 12:13:32;;;;;;;;;3.25;2.00;;;;;15.14;50.38;102647.94;5059851;28;45225;-82
2021/10/13 12:16:02;;;;;;;;;2.00;2.00;;;;;15.00;50.29;102634.13;5061122;28;45240;-82
2021/10/13 12:18:40;;;;;;;;;2.00;2.00;;;;;14.84;50.92;102635.28;5059393;28;45493;-82
2021/10/13 12:21:10;;;;;;;;;1.75;1.00;;;;;14.81;51.17;102637.16;5060464;28;45594;-82
2021/10/13 12:23:50;;;;;;;;;1.00;1.00;;;;;14.76;51.13;102620.47;5061435;28;45361;-82
2021/10/13 12:26:21;;;;;;;;;3.00;1.25;;;;;14.66;51.20;102615.38;5060014;28;45463;-82
2021/10/13 12:28:50;;;;;;;;;2.00;2.00;;;;;14.67;50.94;102622.41;5061238;28;45489;-82
2021/10/13 12:31:25;;;;;;;;;3.75;1.00;;;;;14.63;51.15;102628.66;5059500;28;45612;-82
2021/10/13 12:34:00;;;;;;;;;2.25;2.00;;;;;14.57;50.93;102621.72;5048446;28;45252;-82
2021/10/13 12:36:38;;;;;;;;;0.75;0.75;;;;;14.61;51.03;102630.47;5060894;28;45229;-82
2021/10/13 12:39:06;;;;;;;;;2.50;1.00;;;;;14.60;50.63;102616.38;5060301;28;45668;-82
2021/10/13 12:41:38;;;;;;;;;2.00;2.00;;;;;14.68;50.55;102616.22;5058339;28;45379;-82
2021/10/13 12:44:17;;;;;;;;;4.00;1.50;;;;;14.77;50.33;102625.75;5060007;28;45269;-81
2021/10/13 12:47:00;;;;;;;;;2.00;0.75;;;;;14.74;50.46;102612.59;5060769;28;45537;-82
2021/10/13 12:49:31;;;;;;;;;2.00;1.00;;;;;14.77;50.34;102609.84;5060313;28;46405;-82
2021/10/13 12:51:58;;;;;;;;;4.75;1.25;;;;;14.84;50.12;102614.13;5060031;28;45561;-82
2021/10/13 12:54:24;;;;;;;;;0.25;0.25;;;;;14.85;50.16;102620.28;5060625;28;45270;-82
2021/10/13 12:56:50;;;;;;;;;1.75;1.75;;;;;14.84;49.82;102614.13;5058538;28;45517;-82
2021/10/13 12:59:16;;;;;;;;;2.75;2.00;;;;;14.85;50.24;102610.63;5060598;28;45553;-82
2021/10/13 13:01:41;;;;;;;;;1.50;0.75;;;;;14.88;49.15;102614.09;5060176;28;45542;-82
2021/10/13 13:04:06;;;;;;;;;2.00;1.00;;;;;14.85;49.39;102604.41;5059613;28;45519;-82
2021/10/13 13:06:32;;;;;;;;;1.00;1.00;;;;;14.79;50.38;102592.16;5060440;28;45429;-83
2021/10/13 13:08:59;;;;;;;;;1.50;1.50;;;;;14.79;50.38;102592.16;5060013;28;45385;-83
2021/10/13 13:11:25;;;;;;;;;1.00;1.00;;;;;14.82;49.51;102594.75;5059502;28;45651;-83
2021/10/13 13:13:50;;;;;;;;;1.25;1.00;;;;;14.81;49.03;102595.69;5059382;28;45160;-83
2021/10/13 13:16:16;;;;;;;;;3.50;2.00;;;;;14.82;49.69;102605.34;5059886;28;45212;-83
2021/10/13 13:18:43;;;;;;;;;1.00;1.00;;;;;14.80;48.69;102588.63;5060057;28;46280;-83
2021/10/13 13:21:08;;;;;;;;;1.00;1.00;;;;;14.92;49.28;102602.53;5060463;28;45385;-83
2021/10/13 13:23:34;;;;;;;;;1.00;1.00;;;;;14.95;48.71;102583.94;5060071;28;45240;-83
2021/10/13 13:25:59;;;;;;;;;1.25;1.00;;;;;15.04;48.41;102583.72;5058845;28;45477;-83
2021/10/13 13:28:25;;;;;;;;;3.75;3.50;;;;;15.16;48.91;102592.31;5059843;28;46600;-83
2021/10/13 13:30:50;;;;;;;;;3.00;1.00;;;;;15.20;47.60;102591.34;5058721;28;45491;-83
2021/10/13 13:33:15;;;;;;;;;1.25;1.25;;;;;15.23;48.46;102587.75;5052631;28;45431;-83
2021/10/13 13:35:41;;;;;;;;;1.75;1.00;;;;;15.28;49.31;102581.41;5047591;28;45733;-83
2021/10/13 13:38:07;;;;;;;;;1.00;1.00;;;;;15.37;48.80;102583.00;5058055;28;46376;-83
2021/10/13 13:40:35;;;;;;;;;1.00;1.00;;;;;15.46;49.72;102584.53;5058513;28;45687;-83
2021/10/13 13:43:01;;;;;;;;;3.00;1.00;;;;;15.51;48.34;102580.00;5058494;28;45344;-83
2021/10/13 13:45:27;;;;;;;;;1.50;1.00;;;;;15.56;48.06;102584.31;5058095;28;45586;-83
2021/10/13 13:47:52;;;;;;;;;1.25;1.00;;;;;15.57;47.86;102578.09;5058832;28;46180;-83
2021/10/13 13:50:17;;;;;;;;;2.00;2.00;;;;;15.58;47.64;102588.66;5058600;28;45240;-83
2021/10/13 13:52:43;;;;;;;;;2.00;0.25;;;;;15.55;47.50;102590.53;5059568;28;45291;-83
2021/10/13 13:55:08;;;;;;;;;1.50;1.50;;;;;15.51;46.99;102595.91;5059236;28;45267;-83
2021/10/13 13:57:35;;;;;;;;;1.00;1.00;;;;;15.48;47.16;102605.72;5057835;28;46264;-84
2021/10/13 14:00:00;;;;;;;;;2.50;2.00;;;;;15.37;46.56;102603.31;5056999;28;46275;-83
2021/10/13 14:02:26;;;;;;;;;0.50;0.25;;;;;15.24;47.05;102600.06;5058138;28;45384;-83
2021/10/13 14:04:51;;;;;;;;;1.25;1.25;;;;;15.17;47.28;102596.69;5056632;28;45473;-83
2021/10/13 14:07:17;;;;;;;;;2.25;2.25;;;;;15.13;47.18;102595.03;5057442;28;45409;-83
2021/10/13 14:09:42;;;;;;;;;0.75;0.75;;;;;15.05;47.14;102589.91;5059126;28;45340;-83
2021/10/13 14:12:08;;;;;;;;;1.00;1.00;;;;;15.05;47.06;102596.06;5056946;28;45389;-83
2021/10/13 14:14:35;;;;;;;;;0.25;0.25;;;;;15.03;47.24;102594.34;5059440;28;45436;-83
2021/10/13 14:17:00;;;;;;;;;1.00;1.00;;;;;15.06;46.77;102591.66;5058667;28;45394;-83
2021/10/13 14:19:25;;;;;;;;;1.00;1.00;;;;;15.09;47.09;102593.38;5055662;28;45461;-83
2021/10/13 14:21:51;;;;;;;;;1.00;1.00;;;;;15.09;47.16;102586.25;5061702;28;45228;-83
2021/10/13 14:24:16;;;;;;;;;1.00;1.00;;;;;15.20;48.71;102599.28;5058309;28;45227;-82
2021/10/13 14:26:42;;;;;;;;;1.00;1.00;;;;;15.22;49.30;102600.09;5057949;28;45690;-83
2021/10/13 14:29:07;;;;;;;;;0.50;0.50;;;;;15.25;47.87;102599.16;5057902;28;45230;-83
2021/10/13 14:31:33;;;;;;;;;3.00;1.75;;;;;15.29;47.24;102607.00;5058248;28;45377;-82
2021/10/13 14:33:58;;;;;;;;;1.00;1.00;;;;;15.27;46.90;102606.19;5057476;28;45240;-82
2021/10/13 14:36:24;;;;;;;;;0.75;0.25;;;;;15.27;46.48;102598.22;5057264;28;46430;-83
2021/10/13 14:38:50;;;;;;;;;2.00;1.00;;;;;15.26;46.64;102609.72;5057597;28;45214;-83
2021/10/13 14:41:16;;;;;;;;;2.25;0.25;;;;;15.20;46.29;102604.56;5057032;28;45330;-83
2021/10/13 14:43:44;;;;;;;;;1.50;1.50;;;;;15.25;46.59;102629.19;5057897;28;45539;-82
2021/10/13 14:46:10;;;;;;;;;1.00;0.50;;;;;15.26;46.81;102617.66;5058053;27;45570;-82
2021/10/13 14:48:36;;;;;;;;;0.50;0.00;;;;;15.30;46.20;102615.81;5058534;28;45295;-82
2021/10/13 14:51:02;;;;;;;;;2.00;2.00;;;;;15.24;47.13;102606.22;5058824;28;45494;-82
2021/10/13 14:53:29;;;;;;;;;2.50;1.00;;;;;15.23;46.38;102603.63;5059104;28;45273;-81
2021/10/13 14:55:55;;;;;;;;;2.00;2.00;;;;;15.23;46.26;102595.69;5058758;28;45535;-82
2021/10/13 14:58:22;;;;;;;;;3.25;1.50;;;;;15.24;47.24;102592.13;5058923;28;45235;-82
2021/10/13 15:00:48;;;;;;;;;2.00;2.00;;;;;15.27;46.89;102594.69;5057726;28;45488;-81
2021/10/13 15:03:13;;;;;;;;;3.00;2.00;;;;;15.29;46.97;102598.19;5058326;28;45279;-82
2021/10/13 15:05:39;;;;;;;;;1.50;1.50;;;;;15.29;46.77;102593.75;5058796;28;45449;-82
2021/10/13 15:08:04;;;;;;;;;1.00;1.00;;;;;15.27;46.39;102590.28;5058044;28;45428;-81
2021/10/13 15:10:30;;;;;;;;;1.00;1.00;;;;;15.36;47.87;102598.94;5058527;28;45323;-81
2021/10/13 15:12:55;;;;;;;;;1.00;1.00;;;;;15.36;48.15;102589.19;5059344;28;45358;-81
2021/10/13 15:15:21;;;;;;;;;2.00;1.00;;;;;15.36;46.88;102581.22;5061232;28;45474;-81
2021/10/13 15:17:46;;;;;;;;;3.00;1.00;;;;;15.40;47.05;102592.66;5062089;28;45231;-81
2021/10/13 15:20:12;;;;;;;;;1.75;1.00;;;;;15.34;46.09;102582.19;5061004;28;47045;-82
2021/10/13 15:22:37;;;;;;;;;1.00;1.00;;;;;15.33;46.02;102583.97;5062048;28;45528;-82
2021/10/13 15:25:03;;;;;;;;;1.25;1.25;;;;;15.36;46.32;102583.03;5061718;28;46346;-82
2021/10/13 15:27:28;;;;;;;;;2.50;1.00;;;;;15.35;48.42;102591.88;5061572;28;46474;-82
2021/10/13 15:29:54;;;;;;;;;1.00;1.00;;;;;15.29;46.27;102583.16;5061872;28;45287;-82
2021/10/13 15:32:20;;;;;;;;;3.50;1.00;;;;;15.24;46.25;102587.69;5062099;28;45471;-82
2021/10/13 15:34:45;;;;;;;;;2.00;2.00;;;;;15.25;46.41;102593.88;5059938;28;46152;-82
2021/10/13 15:37:12;;;;;;;;;0.50;0.25;;;;;15.19;46.11;102592.22;5061659;28;45364;-82
2021/10/13 15:39:38;;;;;;;;;2.50;0.25;;;;;15.17;46.54;102592.28;5061530;28;45424;-82
2021/10/13 15:42:04;;;;;;;;;2.00;1.00;;;;;15.12;46.18;102587.97;5059261;28;45426;-81
2021/10/13 15:44:29;;;;;;;;;1.00;1.00;;;;;15.10;46.59;102582.72;5060227;28;45988;-81
2021/10/13 15:46:54;;;;;;;;;2.00;1.00;;;;;15.11;46.58;102594.19;5061750;28;45287;-81
2021/10/13 15:49:20;;;;;;;;;1.75;1.75;;;;;15.13;46.05;102597.69;5076174;28;45358;-81
2021/10/13 15:51:46;;;;;;;;;1.50;1.00;;;;;15.09;46.12;102593.38;5060864;28;45591;-81
2021/10/13 15:54:11;;;;;;;;;2.00;1.50;;;;;15.03;45.86;102589.94;5061232;28;45476;-82
2021/10/13 15:56:38;;;;;;;;;3.50;2.25;;;;;15.09;46.08;102602.16;5061352;28;45245;-82
2021/10/13 15:59:08;;;;;;;;;3.75;2.00;;;;;15.02;46.13;102590.84;5061580;28;45259;-82
2021/10/13 16:01:34;;;;;;;;;3.00;2.00;;;;;15.01;46.23;102588.22;5057557;28;45552;-81
2021/10/13 16:04:00;;;;;;;;;2.00;2.00;;;;;15.06;46.98;102595.16;5060563;28;46526;-81
2021/10/13 16:06:27;;;;;;;;;2.00;2.00;;;;;15.03;47.77;102597.88;5061468;28;45389;-81
2021/10/13 16:08:53;;;;;;;;;0.75;0.75;;;;;15.08;46.37;102605.72;5061533;28;45216;-81
2021/10/13 16:11:18;;;;;;;;;2.00;2.00;;;;;15.07;47.85;102591.59;5061309;28;45187;-81
2021/10/13 16:13:44;;;;;;;;;1.75;1.75;;;;;15.10;49.37;102603.91;5060637;28;45257;-81
2021/10/13 16:16:09;;;;;;;;;2.00;1.75;;;;;15.06;49.47;102589.84;5060317;28;45230;-81
2021/10/13 16:18:35;;;;;;;;;0.50;0.50;;;;;15.05;48.05;102593.41;5061610;28;45688;-81
2021/10/13 16:21:01;;;;;;;;;1.75;1.75;;;;;15.06;48.67;102599.59;5061019;28;45384;-81
2021/10/13 16:23:27;;;;;;;;;2.50;2.25;;;;;15.02;49.30;102601.44;5060806;28;46256;-81
2021/10/13 16:25:52;;;;;;;;;1.75;1.75;;;;;15.02;50.50;102600.53;5059075;28;45237;-81
2021/10/13 16:28:18;;;;;;;;;2.50;0.25;;;;;14.99;49.74;102604.13;5060008;28;45309;-81
2021/10/13 16:30:43;;;;;;;;;1.00;1.00;;;;;15.00;50.06;102605.00;5061226;28;45306;-81
2021/10/13 16:33:09;;;;;;;;;2.00;2.00;;;;;14.91;48.77;102606.09;5060814;28;46255;-81
2021/10/13 16:35:34;;;;;;;;;2.75;2.75;;;;;14.87;49.20;102607.03;5058908;28;45415;-81
2021/10/13 16:38:00;;;;;;;;;1.00;1.00;;;;;14.82;48.93;102599.16;5061048;28;45440;-81